sensor_id;sensor_type;location;lat;lon;timestamp;pressure;altitude;pressure_sealevel;temperature;humidity
6345;BME280;3205;42.666;23.264;2023-03-31T00:00:43;94384.31;;;7.75;100.00
6345;BME280;3205;42.666;23.264;2023-03-31T00:03:09;94381.03;;;7.86;100.00
6345;BME280;3205;42.666;23.264;2023-03-31T00:05:35;94379.50;;;7.85;100.00
6345;BME280;3205;42.666;23.264;2023-03-31T00:08:02;94375.84;;;8.15;100.00
6345;BME280;3205;42.666;23.264;2023-03-31T00:10:29;94370.88;;;8.13;100.00
6345;BME280;3205;42.666;23.264;2023-03-31T00:12:56;94372.97;;;8.00;100.00
6345;BME280;3205;42.666;23.264;2023-03-31T00:15:23;94373.38;;;8.02;100.00
6345;BME280;3205;42.666;23.264;2023-03-31T00:17:49;94365.28;;;8.23;100.00
6345;BME280;3205;42.666;23.264;2023-03-31T00:20:15;94366.16;;;8.36;100.00
6345;BME280;3205;42.666;23.264;2023-03-31T00:22:42;94372.38;;;8.31;100.00
6345;BME280;3205;42.666;23.264;2023-03-31T00:25:11;94361.56;;;8.24;100.00
6345;BME280;3205;42.666;23.264;2023-03-31T00:27:39;94360.91;;;8.27;100.00
6345;BME280;3205;42.666;23.264;2023-03-31T00:30:07;94370.94;;;8.34;100.00
6345;BME280;3205;42.666;23.264;2023-03-31T00:32:34;94366.28;;;8.39;100.00
6345;BME280;3205;42.666;23.264;2023-03-31T00:35:00;94362.72;;;8.35;100.00
6345;BME280;3205;42.666;23.264;2023-03-31T00:37:27;94363.81;;;8.34;100.00
6345;BME280;3205;42.666;23.264;2023-03-31T00:39:54;94353.84;;;8.69;100.00
6345;BME280;3205;42.666;23.264;2023-03-31T00:42:20;94353.38;;;8.67;100.00
6345;BME280;3205;42.666;23.264;2023-03-31T00:48:00;94350.38;;;8.77;100.00
6345;BME280;3205;42.666;23.264;2023-03-31T00:50:31;94349.78;;;8.71;100.00
6345;BME280;3205;42.666;23.264;2023-03-31T00:53:02;94343.31;;;8.69;100.00
6345;BME280;3205;42.666;23.264;2023-03-31T00:55:35;94349.66;;;8.68;100.00
6345;BME280;3205;42.666;23.264;2023-03-31T00:58:04;94338.53;;;9.03;100.00
6345;BME280;3205;42.666;23.264;2023-03-31T01:00:31;94335.00;;;8.99;100.00
6345;BME280;3205;42.666;23.264;2023-03-31T01:03:00;94336.31;;;8.93;100.00
6345;BME280;3205;42.666;23.264;2023-03-31T01:05:32;94336.09;;;8.98;100.00
6345;BME280;3205;42.666;23.264;2023-03-31T01:07:59;94328.66;;;9.00;100.00
6345;BME280;3205;42.666;23.264;2023-03-31T01:10:27;94332.69;;;8.97;100.00
6345;BME280;3205;42.666;23.264;2023-03-31T01:12:54;94325.69;;;9.01;100.00
6345;BME280;3205;42.666;23.264;2023-03-31T01:15:22;94322.41;;;9.04;100.00
6345;BME280;3205;42.666;23.264;2023-03-31T01:17:48;94324.84;;;9.09;100.00
6345;BME280;3205;42.666;23.264;2023-03-31T01:20:28;94317.44;;;9.03;100.00
6345;BME280;3205;42.666;23.264;2023-03-31T01:23:31;94330.09;;;9.09;100.00
6345;BME280;3205;42.666;23.264;2023-03-31T01:26:22;94334.69;;;9.00;100.00
6345;BME280;3205;42.666;23.264;2023-03-31T01:28:53;94336.97;;;9.02;100.00
6345;BME280;3205;42.666;23.264;2023-03-31T01:31:42;94341.28;;;9.06;100.00
6345;BME280;3205;42.666;23.264;2023-03-31T01:37:31;94333.72;;;9.05;100.00
6345;BME280;3205;42.666;23.264;2023-03-31T01:40:22;94347.22;;;9.03;100.00
6345;BME280;3205;42.666;23.264;2023-03-31T01:42:53;94354.59;;;9.10;100.00
6345;BME280;3205;42.666;23.264;2023-03-31T01:45:31;94361.28;;;9.07;100.00
6345;BME280;3205;42.666;23.264;2023-03-31T01:48:05;94358.66;;;9.07;100.00
6345;BME280;3205;42.666;23.264;2023-03-31T01:50:34;94356.13;;;9.11;100.00
6345;BME280;3205;42.666;23.264;2023-03-31T01:53:04;94365.41;;;9.17;100.00
6345;BME280;3205;42.666;23.264;2023-03-31T01:55:36;94366.44;;;9.24;100.00
6345;BME280;3205;42.666;23.264;2023-03-31T01:58:08;94361.34;;;9.19;100.00
6345;BME280;3205;42.666;23.264;2023-03-31T02:00:41;94364.75;;;9.20;100.00
6345;BME280;3205;42.666;23.264;2023-03-31T02:03:14;94361.16;;;9.24;100.00
6345;BME280;3205;42.666;23.264;2023-03-31T02:05:45;94370.28;;;9.27;100.00
6345;BME280;3205;42.666;23.264;2023-03-31T02:08:16;94372.78;;;9.23;100.00
6345;BME280;3205;42.666;23.264;2023-03-31T02:10:47;94369.94;;;9.28;100.00
6345;BME280;3205;42.666;23.264;2023-03-31T02:13:14;94387.81;;;9.23;100.00
6345;BME280;3205;42.666;23.264;2023-03-31T02:15:45;94392.22;;;9.19;100.00
6345;BME280;3205;42.666;23.264;2023-03-31T02:18:15;94391.00;;;9.16;100.00
6345;BME280;3205;42.666;23.264;2023-03-31T02:20:46;94388.69;;;9.15;100.00
6345;BME280;3205;42.666;23.264;2023-03-31T02:23:16;94400.13;;;9.19;100.00
6345;BME280;3205;42.666;23.264;2023-03-31T02:25:48;94388.69;;;9.15;100.00
6345;BME280;3205;42.666;23.264;2023-03-31T02:28:19;94404.03;;;9.33;100.00
6345;BME280;3205;42.666;23.264;2023-03-31T02:30:50;94414.78;;;9.49;100.00
6345;BME280;3205;42.666;23.264;2023-03-31T02:33:22;94413.91;;;9.57;100.00
6345;BME280;3205;42.666;23.264;2023-03-31T02:35:49;94411.25;;;9.57;100.00
6345;BME280;3205;42.666;23.264;2023-03-31T02:38:16;94408.75;;;9.60;100.00
6345;BME280;3205;42.666;23.264;2023-03-31T02:40:42;94413.28;;;9.59;100.00
6345;BME280;3205;42.666;23.264;2023-03-31T02:43:09;94407.34;;;9.62;100.00
6345;BME280;3205;42.666;23.264;2023-03-31T02:45:38;94408.88;;;9.63;100.00
6345;BME280;3205;42.666;23.264;2023-03-31T02:48:07;94409.53;;;9.60;100.00
6345;BME280;3205;42.666;23.264;2023-03-31T02:50:45;94392.63;;;9.61;100.00
6345;BME280;3205;42.666;23.264;2023-03-31T02:53:20;94375.88;;;9.57;100.00
6345;BME280;3205;42.666;23.264;2023-03-31T02:56:02;94377.28;;;9.55;100.00
6345;BME280;3205;42.666;23.264;2023-03-31T02:59:04;94374.88;;;9.50;100.00
6345;BME280;3205;42.666;23.264;2023-03-31T03:01:54;94360.34;;;9.44;100.00
6345;BME280;3205;42.666;23.264;2023-03-31T03:04:36;94355.25;;;9.39;100.00
6345;BME280;3205;42.666;23.264;2023-03-31T03:07:12;94356.50;;;9.42;100.00
6345;BME280;3205;42.666;23.264;2023-03-31T03:09:45;94347.06;;;9.53;100.00
6345;BME280;3205;42.666;23.264;2023-03-31T03:12:21;94344.09;;;9.54;100.00
6345;BME280;3205;42.666;23.264;2023-03-31T03:14:54;94339.47;;;9.51;100.00
6345;BME280;3205;42.666;23.264;2023-03-31T03:17:23;94328.03;;;9.47;100.00
6345;BME280;3205;42.666;23.264;2023-03-31T03:19:53;94329.22;;;9.50;100.00
6345;BME280;3205;42.666;23.264;2023-03-31T03:22:20;94331.56;;;9.51;100.00
6345;BME280;3205;42.666;23.264;2023-03-31T03:24:47;94331.44;;;9.48;100.00
6345;BME280;3205;42.666;23.264;2023-03-31T03:27:13;94333.50;;;9.42;100.00
6345;BME280;3205;42.666;23.264;2023-03-31T03:29:40;94328.78;;;9.36;100.00
6345;BME280;3205;42.666;23.264;2023-03-31T03:32:08;94329.91;;;9.47;100.00
6345;BME280;3205;42.666;23.264;2023-03-31T03:34:34;94328.22;;;9.42;100.00
6345;BME280;3205;42.666;23.264;2023-03-31T03:37:00;94332.41;;;9.43;100.00
6345;BME280;3205;42.666;23.264;2023-03-31T03:39:26;94324.41;;;9.52;100.00
6345;BME280;3205;42.666;23.264;2023-03-31T03:41:53;94317.03;;;9.45;100.00
6345;BME280;3205;42.666;23.264;2023-03-31T03:44:19;94312.41;;;9.42;100.00
6345;BME280;3205;42.666;23.264;2023-03-31T03:46:45;94311.75;;;9.45;100.00
6345;BME280;3205;42.666;23.264;2023-03-31T03:49:11;94304.31;;;9.59;100.00
6345;BME280;3205;42.666;23.264;2023-03-31T03:51:38;94302.66;;;9.66;100.00
6345;BME280;3205;42.666;23.264;2023-03-31T03:54:04;94306.41;;;9.77;100.00
6345;BME280;3205;42.666;23.264;2023-03-31T03:56:30;94308.63;;;9.75;100.00
6345;BME280;3205;42.666;23.264;2023-03-31T03:58:56;94308.94;;;9.74;100.00
6345;BME280;3205;42.666;23.264;2023-03-31T04:01:22;94311.81;;;9.69;100.00
6345;BME280;3205;42.666;23.264;2023-03-31T04:03:48;94318.50;;;9.66;100.00
6345;BME280;3205;42.666;23.264;2023-03-31T04:06:15;94320.81;;;9.68;100.00
6345;BME280;3205;42.666;23.264;2023-03-31T04:08:41;94317.53;;;9.71;100.00
6345;BME280;3205;42.666;23.264;2023-03-31T04:11:11;94321.94;;;9.79;100.00
6345;BME280;3205;42.666;23.264;2023-03-31T04:13:37;94321.16;;;9.78;100.00
6345;BME280;3205;42.666;23.264;2023-03-31T04:16:06;94327.88;;;9.88;100.00
6345;BME280;3205;42.666;23.264;2023-03-31T04:18:32;94319.72;;;9.69;100.00
6345;BME280;3205;42.666;23.264;2023-03-31T04:21:02;94329.81;;;9.67;100.00
6345;BME280;3205;42.666;23.264;2023-03-31T04:23:30;94328.31;;;9.66;100.00
6345;BME280;3205;42.666;23.264;2023-03-31T04:25:56;94334.69;;;9.77;100.00
6345;BME280;3205;42.666;23.264;2023-03-31T04:28:22;94329.63;;;9.84;100.00
6345;BME280;3205;42.666;23.264;2023-03-31T04:30:51;94340.44;;;9.91;100.00
6345;BME280;3205;42.666;23.264;2023-03-31T04:33:19;94330.19;;;9.89;100.00
6345;BME280;3205;42.666;23.264;2023-03-31T04:35:46;94329.06;;;9.90;100.00
6345;BME280;3205;42.666;23.264;2023-03-31T04:38:17;94319.09;;;9.96;100.00
6345;BME280;3205;42.666;23.264;2023-03-31T04:40:45;94318.47;;;9.99;100.00
6345;BME280;3205;42.666;23.264;2023-03-31T04:43:11;94313.81;;;10.08;100.00
6345;BME280;3205;42.666;23.264;2023-03-31T04:45:37;94314.84;;;10.15;100.00
6345;BME280;3205;42.666;23.264;2023-03-31T04:48:04;94326.38;;;10.23;100.00
6345;BME280;3205;42.666;23.264;2023-03-31T04:50:30;94322.28;;;10.25;100.00
6345;BME280;3205;42.666;23.264;2023-03-31T04:52:57;94316.59;;;10.23;100.00
6345;BME280;3205;42.666;23.264;2023-03-31T04:55:23;94309.88;;;10.26;100.00
6345;BME280;3205;42.666;23.264;2023-03-31T04:57:50;94308.56;;;10.32;100.00
6345;BME280;3205;42.666;23.264;2023-03-31T05:00:17;94303.47;;;10.38;100.00
6345;BME280;3205;42.666;23.264;2023-03-31T05:02:43;94298.16;;;10.50;100.00
6345;BME280;3205;42.666;23.264;2023-03-31T05:05:10;94284.50;;;10.60;100.00
6345;BME280;3205;42.666;23.264;2023-03-31T05:07:36;94289.31;;;10.70;100.00
6345;BME280;3205;42.666;23.264;2023-03-31T05:10:03;94284.41;;;10.84;100.00
6345;BME280;3205;42.666;23.264;2023-03-31T05:12:33;94285.31;;;10.88;100.00
6345;BME280;3205;42.666;23.264;2023-03-31T05:15:00;94279.69;;;10.90;100.00
6345;BME280;3205;42.666;23.264;2023-03-31T05:17:26;94279.06;;;11.08;100.00
6345;BME280;3205;42.666;23.264;2023-03-31T05:19:52;94261.84;;;11.29;100.00
6345;BME280;3205;42.666;23.264;2023-03-31T05:22:18;94279.50;;;11.53;100.00
6345;BME280;3205;42.666;23.264;2023-03-31T05:24:45;94271.47;;;11.65;100.00
6345;BME280;3205;42.666;23.264;2023-03-31T05:27:11;94282.31;;;11.90;100.00
6345;BME280;3205;42.666;23.264;2023-03-31T05:29:37;94269.22;;;12.28;100.00
6345;BME280;3205;42.666;23.264;2023-03-31T05:32:04;94272.66;;;12.63;100.00
6345;BME280;3205;42.666;23.264;2023-03-31T05:34:30;94278.34;;;13.18;100.00
6345;BME280;3205;42.666;23.264;2023-03-31T05:36:57;94273.44;;;13.61;94.77
6345;BME280;3205;42.666;23.264;2023-03-31T05:39:23;94276.94;;;13.88;88.65
6345;BME280;3205;42.666;23.264;2023-03-31T05:41:49;94276.81;;;14.25;84.73
6345;BME280;3205;42.666;23.264;2023-03-31T05:44:15;94278.47;;;15.18;78.92
6345;BME280;3205;42.666;23.264;2023-03-31T05:46:41;94277.06;;;17.14;67.96
6345;BME280;3205;42.666;23.264;2023-03-31T05:49:08;94266.59;;;17.90;60.65
6345;BME280;3205;42.666;23.264;2023-03-31T05:51:35;94270.63;;;19.41;56.91
6345;BME280;3205;42.666;23.264;2023-03-31T05:54:02;94267.34;;;20.42;50.90
6345;BME280;3205;42.666;23.264;2023-03-31T05:56:28;94279.63;;;20.83;48.85
6345;BME280;3205;42.666;23.264;2023-03-31T05:58:54;94271.69;;;20.69;48.21
6345;BME280;3205;42.666;23.264;2023-03-31T06:01:20;94268.22;;;19.67;48.28
6345;BME280;3205;42.666;23.264;2023-03-31T06:03:48;94280.41;;;18.45;50.02
6345;BME280;3205;42.666;23.264;2023-03-31T06:06:15;94287.69;;;18.23;51.42
6345;BME280;3205;42.666;23.264;2023-03-31T06:08:42;94285.28;;;17.63;54.21
6345;BME280;3205;42.666;23.264;2023-03-31T06:11:10;94287.28;;;16.98;55.65
6345;BME280;3205;42.666;23.264;2023-03-31T06:13:38;94284.66;;;16.01;58.64
6345;BME280;3205;42.666;23.264;2023-03-31T06:16:05;94273.91;;;15.51;60.65
6345;BME280;3205;42.666;23.264;2023-03-31T06:18:33;94289.47;;;15.16;63.30
6345;BME280;3205;42.666;23.264;2023-03-31T06:21:00;94289.09;;;14.88;64.04
6345;BME280;3205;42.666;23.264;2023-03-31T06:23:27;94282.34;;;14.94;64.63
6345;BME280;3205;42.666;23.264;2023-03-31T06:25:53;94276.22;;;14.90;65.93
6345;BME280;3205;42.666;23.264;2023-03-31T06:28:20;94276.44;;;15.41;65.37
6345;BME280;3205;42.666;23.264;2023-03-31T06:30:46;94274.34;;;15.57;64.81
6345;BME280;3205;42.666;23.264;2023-03-31T06:33:12;94279.81;;;15.70;64.43
6345;BME280;3205;42.666;23.264;2023-03-31T06:35:39;94280.56;;;16.11;63.57
6345;BME280;3205;42.666;23.264;2023-03-31T06:38:06;94270.53;;;16.40;60.84
6345;BME280;3205;42.666;23.264;2023-03-31T06:40:33;94281.41;;;16.72;59.41
6345;BME280;3205;42.666;23.264;2023-03-31T06:42:59;94283.47;;;16.99;57.42
6345;BME280;3205;42.666;23.264;2023-03-31T06:45:25;94288.38;;;17.86;56.83
6345;BME280;3205;42.666;23.264;2023-03-31T06:47:51;94295.13;;;19.43;51.30
6345;BME280;3205;42.666;23.264;2023-03-31T06:50:17;94292.97;;;20.93;47.49
6345;BME280;3205;42.666;23.264;2023-03-31T06:52:43;94291.19;;;21.50;45.74
6345;BME280;3205;42.666;23.264;2023-03-31T06:55:10;94293.31;;;20.99;45.93
6345;BME280;3205;42.666;23.264;2023-03-31T06:57:38;94301.47;;;20.41;47.11
6345;BME280;3205;42.666;23.264;2023-03-31T07:00:05;94285.59;;;20.10;47.47
6345;BME280;3205;42.666;23.264;2023-03-31T07:02:32;94289.31;;;20.70;47.00
6345;BME280;3205;42.666;23.264;2023-03-31T07:04:58;94281.66;;;21.46;45.21
6345;BME280;3205;42.666;23.264;2023-03-31T07:07:24;94269.41;;;23.19;41.86
6345;BME280;3205;42.666;23.264;2023-03-31T07:09:50;94256.72;;;25.20;38.79
6345;BME280;3205;42.666;23.264;2023-03-31T07:12:16;94248.69;;;25.86;37.09
6345;BME280;3205;42.666;23.264;2023-03-31T07:14:43;94247.66;;;27.89;35.03
6345;BME280;3205;42.666;23.264;2023-03-31T07:17:10;94242.56;;;28.61;32.96
6345;BME280;3205;42.666;23.264;2023-03-31T07:19:36;94249.16;;;29.62;31.83
6345;BME280;3205;42.666;23.264;2023-03-31T07:22:02;94231.31;;;29.07;31.67
6345;BME280;3205;42.666;23.264;2023-03-31T07:24:28;94235.41;;;28.46;31.95
6345;BME280;3205;42.666;23.264;2023-03-31T07:26:55;94226.97;;;27.83;32.41
6345;BME280;3205;42.666;23.264;2023-03-31T07:29:21;94224.50;;;29.12;31.89
6345;BME280;3205;42.666;23.264;2023-03-31T07:31:48;94236.06;;;31.07;29.67
6345;BME280;3205;42.666;23.264;2023-03-31T07:34:14;94247.28;;;32.57;28.07
6345;BME280;3205;42.666;23.264;2023-03-31T07:36:40;94228.59;;;33.29;28.04
6345;BME280;3205;42.666;23.264;2023-03-31T07:39:07;94244.56;;;32.14;27.28
6345;BME280;3205;42.666;23.264;2023-03-31T07:41:33;94239.06;;;31.85;27.80
6345;BME280;3205;42.666;23.264;2023-03-31T07:43:59;94227.09;;;31.97;27.21
6345;BME280;3205;42.666;23.264;2023-03-31T07:46:26;94224.16;;;32.58;27.28
6345;BME280;3205;42.666;23.264;2023-03-31T07:48:55;94234.50;;;33.22;26.32
6345;BME280;3205;42.666;23.264;2023-03-31T07:51:24;94225.72;;;34.40;26.39
6345;BME280;3205;42.666;23.264;2023-03-31T07:53:51;94240.38;;;35.51;25.06
6345;BME280;3205;42.666;23.264;2023-03-31T07:56:18;94240.22;;;35.76;24.44
6345;BME280;3205;42.666;23.264;2023-03-31T07:58:45;94236.94;;;35.09;24.51
6345;BME280;3205;42.666;23.264;2023-03-31T08:01:12;94231.44;;;35.09;25.00
6345;BME280;3205;42.666;23.264;2023-03-31T08:03:41;94229.06;;;36.18;24.03
6345;BME280;3205;42.666;23.264;2023-03-31T08:06:08;94237.03;;;36.16;23.91
6345;BME280;3205;42.666;23.264;2023-03-31T08:08:34;94221.69;;;35.60;23.86
6345;BME280;3205;42.666;23.264;2023-03-31T08:11:02;94215.78;;;33.21;24.62
6345;BME280;3205;42.666;23.264;2023-03-31T08:13:28;94206.63;;;30.23;27.75
6345;BME280;3205;42.666;23.264;2023-03-31T08:15:55;94215.50;;;27.88;30.15
6345;BME280;3205;42.666;23.264;2023-03-31T08:18:21;94215.66;;;26.87;31.94
6345;BME280;3205;42.666;23.264;2023-03-31T08:20:47;94211.50;;;27.71;31.53
6345;BME280;3205;42.666;23.264;2023-03-31T08:23:15;94195.25;;;30.25;28.62
6345;BME280;3205;42.666;23.264;2023-03-31T08:25:41;94200.47;;;31.54;27.80
6345;BME280;3205;42.666;23.264;2023-03-31T08:28:07;94200.88;;;32.19;27.00
6345;BME280;3205;42.666;23.264;2023-03-31T08:30:36;94194.22;;;32.40;25.96
6345;BME280;3205;42.666;23.264;2023-03-31T08:33:02;94204.94;;;32.24;26.41
6345;BME280;3205;42.666;23.264;2023-03-31T08:35:28;94190.59;;;31.85;26.55
6345;BME280;3205;42.666;23.264;2023-03-31T08:37:55;94198.16;;;31.76;27.45
6345;BME280;3205;42.666;23.264;2023-03-31T08:40:23;94208.50;;;31.58;26.54
6345;BME280;3205;42.666;23.264;2023-03-31T08:42:52;94211.38;;;30.79;27.10
6345;BME280;3205;42.666;23.264;2023-03-31T08:45:22;94223.88;;;31.32;27.19
6345;BME280;3205;42.666;23.264;2023-03-31T08:47:53;94221.22;;;30.53;28.07
6345;BME280;3205;42.666;23.264;2023-03-31T08:50:24;94210.28;;;29.52;27.95
6345;BME280;3205;42.666;23.264;2023-03-31T08:52:58;94208.38;;;31.00;27.63
6345;BME280;3205;42.666;23.264;2023-03-31T08:55:31;94209.31;;;32.84;26.47
6345;BME280;3205;42.666;23.264;2023-03-31T08:58:05;94198.47;;;33.75;25.33
6345;BME280;3205;42.666;23.264;2023-03-31T09:00:38;94203.59;;;34.85;24.23
6345;BME280;3205;42.666;23.264;2023-03-31T09:03:11;94194.44;;;35.04;23.83
6345;BME280;3205;42.666;23.264;2023-03-31T09:05:46;94197.84;;;35.41;23.23
6345;BME280;3205;42.666;23.264;2023-03-31T09:08:24;94183.75;;;36.25;22.55
6345;BME280;3205;42.666;23.264;2023-03-31T09:11:05;94188.19;;;35.62;23.15
6345;BME280;3205;42.666;23.264;2023-03-31T09:13:55;94185.72;;;35.80;23.05
6345;BME280;3205;42.666;23.264;2023-03-31T09:16:31;94178.97;;;35.01;22.99
6345;BME280;3205;42.666;23.264;2023-03-31T09:19:00;94176.72;;;31.46;25.18
6345;BME280;3205;42.666;23.264;2023-03-31T09:21:29;94175.63;;;28.99;27.73
6345;BME280;3205;42.666;23.264;2023-03-31T09:24:00;94169.44;;;29.43;28.50
6345;BME280;3205;42.666;23.264;2023-03-31T09:26:37;94173.31;;;26.68;29.88
6345;BME280;3205;42.666;23.264;2023-03-31T09:29:11;94163.94;;;26.69;30.48
6345;BME280;3205;42.666;23.264;2023-03-31T09:31:41;94177.28;;;26.17;31.72
6345;BME280;3205;42.666;23.264;2023-03-31T09:34:13;94180.66;;;27.86;30.19
6345;BME280;3205;42.666;23.264;2023-03-31T09:36:40;94182.06;;;28.39;29.96
6345;BME280;3205;42.666;23.264;2023-03-31T09:39:10;94175.81;;;28.21;29.62
6345;BME280;3205;42.666;23.264;2023-03-31T09:42:10;94182.41;;;28.11;29.59
6345;BME280;3205;42.666;23.264;2023-03-31T09:44:38;94170.97;;;26.79;31.15
6345;BME280;3205;42.666;23.264;2023-03-31T09:47:08;94170.94;;;25.58;32.45
6345;BME280;3205;42.666;23.264;2023-03-31T09:49:36;94163.75;;;25.27;33.37
6345;BME280;3205;42.666;23.264;2023-03-31T09:52:06;94163.09;;;25.23;33.34
6345;BME280;3205;42.666;23.264;2023-03-31T09:54:40;94147.78;;;25.04;33.73
6345;BME280;3205;42.666;23.264;2023-03-31T09:57:15;94148.72;;;24.97;33.70
6345;BME280;3205;42.666;23.264;2023-03-31T09:59:49;94150.00;;;24.65;34.29
6345;BME280;3205;42.666;23.264;2023-03-31T10:02:28;94139.91;;;24.37;34.17
6345;BME280;3205;42.666;23.264;2023-03-31T10:04:58;94146.84;;;23.90;35.20
6345;BME280;3205;42.666;23.264;2023-03-31T10:07:25;94148.72;;;23.03;35.83
6345;BME280;3205;42.666;23.264;2023-03-31T10:09:51;94133.38;;;22.61;36.90
6345;BME280;3205;42.666;23.264;2023-03-31T10:12:21;94141.59;;;22.54;37.03
6345;BME280;3205;42.666;23.264;2023-03-31T10:14:51;94131.22;;;21.62;38.39
6345;BME280;3205;42.666;23.264;2023-03-31T10:17:19;94128.38;;;21.72;38.70
6345;BME280;3205;42.666;23.264;2023-03-31T10:19:50;94121.38;;;21.48;38.90
6345;BME280;3205;42.666;23.264;2023-03-31T10:22:27;94115.88;;;21.32;39.26
6345;BME280;3205;42.666;23.264;2023-03-31T10:24:54;94123.88;;;21.62;39.58
6345;BME280;3205;42.666;23.264;2023-03-31T10:27:33;94112.06;;;21.56;39.46
6345;BME280;3205;42.666;23.264;2023-03-31T10:30:01;94111.41;;;21.49;39.53
6345;BME280;3205;42.666;23.264;2023-03-31T10:32:29;94113.06;;;21.39;39.69
6345;BME280;3205;42.666;23.264;2023-03-31T10:34:57;94106.97;;;21.09;39.98
6345;BME280;3205;42.666;23.264;2023-03-31T10:37:26;94104.38;;;21.02;40.43
6345;BME280;3205;42.666;23.264;2023-03-31T10:39:56;94100.41;;;21.10;40.23
6345;BME280;3205;42.666;23.264;2023-03-31T10:42:24;94091.66;;;21.32;40.28
6345;BME280;3205;42.666;23.264;2023-03-31T10:45:09;94090.09;;;21.35;40.08
6345;BME280;3205;42.666;23.264;2023-03-31T10:47:38;94096.13;;;21.42;39.77
6345;BME280;3205;42.666;23.264;2023-03-31T10:50:12;94091.94;;;21.38;39.95
6345;BME280;3205;42.666;23.264;2023-03-31T10:52:43;94084.34;;;21.06;40.54
6345;BME280;3205;42.666;23.264;2023-03-31T10:55:11;94090.69;;;20.93;40.74
6345;BME280;3205;42.666;23.264;2023-03-31T10:57:45;94080.72;;;20.90;41.16
6345;BME280;3205;42.666;23.264;2023-03-31T11:00:20;94085.28;;;20.60;41.50
6345;BME280;3205;42.666;23.264;2023-03-31T11:03:16;94085.78;;;20.51;41.80
6345;BME280;3205;42.666;23.264;2023-03-31T11:05:49;94083.59;;;20.43;42.19
6345;BME280;3205;42.666;23.264;2023-03-31T11:08:26;94077.56;;;20.32;42.06
6345;BME280;3205;42.666;23.264;2023-03-31T11:11:10;94062.63;;;20.31;42.18
6345;BME280;3205;42.666;23.264;2023-03-31T11:13:44;94067.56;;;20.36;42.80
6345;BME280;3205;42.666;23.264;2023-03-31T11:16:18;94055.19;;;20.09;42.27
6345;BME280;3205;42.666;23.264;2023-03-31T11:19:00;94061.06;;;19.97;43.35
6345;BME280;3205;42.666;23.264;2023-03-31T11:21:39;94065.31;;;19.94;43.71
6345;BME280;3205;42.666;23.264;2023-03-31T11:24:15;94062.56;;;20.01;43.44
6345;BME280;3205;42.666;23.264;2023-03-31T11:26:46;94049.44;;;20.10;44.00
6345;BME280;3205;42.666;23.264;2023-03-31T11:29:25;94041.53;;;20.29;43.79
6345;BME280;3205;42.666;23.264;2023-03-31T11:32:01;94038.56;;;20.54;43.24
6345;BME280;3205;42.666;23.264;2023-03-31T11:34:47;94033.84;;;20.65;42.99
6345;BME280;3205;42.666;23.264;2023-03-31T11:37:32;94041.81;;;20.72;42.76
6345;BME280;3205;42.666;23.264;2023-03-31T11:40:13;94032.00;;;20.58;42.71
6345;BME280;3205;42.666;23.264;2023-03-31T11:42:47;94036.94;;;20.30;43.29
6345;BME280;3205;42.666;23.264;2023-03-31T11:45:18;94031.16;;;19.98;44.37
6345;BME280;3205;42.666;23.264;2023-03-31T11:47:49;94024.44;;;19.80;45.27
6345;BME280;3205;42.666;23.264;2023-03-31T11:50:19;94022.09;;;19.82;45.35
6345;BME280;3205;42.666;23.264;2023-03-31T11:52:52;94016.97;;;19.57;45.78
6345;BME280;3205;42.666;23.264;2023-03-31T11:55:22;94016.66;;;19.52;46.15
6345;BME280;3205;42.666;23.264;2023-03-31T11:57:57;94006.06;;;19.35;46.33
6345;BME280;3205;42.666;23.264;2023-03-31T12:00:27;93999.59;;;19.32;46.92
6345;BME280;3205;42.666;23.264;2023-03-31T12:03:01;94004.09;;;19.42;47.23
6345;BME280;3205;42.666;23.264;2023-03-31T12:05:32;93991.84;;;19.41;47.06
6345;BME280;3205;42.666;23.264;2023-03-31T12:08:05;93986.56;;;19.31;47.03
6345;BME280;3205;42.666;23.264;2023-03-31T12:10:34;93984.91;;;19.43;47.06
6345;BME280;3205;42.666;23.264;2023-03-31T12:13:18;93986.50;;;19.38;46.56
6345;BME280;3205;42.666;23.264;2023-03-31T12:15:57;93985.16;;;19.59;46.87
6345;BME280;3205;42.666;23.264;2023-03-31T12:18:29;93984.13;;;19.46;46.50
6345;BME280;3205;42.666;23.264;2023-03-31T12:21:01;93980.31;;;19.44;46.82
6345;BME280;3205;42.666;23.264;2023-03-31T12:23:32;93982.25;;;19.40;46.57
6345;BME280;3205;42.666;23.264;2023-03-31T12:26:05;93985.56;;;19.11;47.79
6345;BME280;3205;42.666;23.264;2023-03-31T12:28:33;93983.44;;;18.88;48.25
6345;BME280;3205;42.666;23.264;2023-03-31T12:31:03;93972.66;;;18.95;47.81
6345;BME280;3205;42.666;23.264;2023-03-31T12:33:33;93974.09;;;19.07;48.22
6345;BME280;3205;42.666;23.264;2023-03-31T12:36:14;93964.44;;;19.23;48.10
6345;BME280;3205;42.666;23.264;2023-03-31T12:38:55;93962.44;;;19.31;48.31
6345;BME280;3205;42.666;23.264;2023-03-31T12:41:29;93969.63;;;19.40;47.95
6345;BME280;3205;42.666;23.264;2023-03-31T12:44:20;93958.94;;;19.37;47.85
6345;BME280;3205;42.666;23.264;2023-03-31T12:47:07;93945.28;;;19.25;47.83
6345;BME280;3205;42.666;23.264;2023-03-31T12:49:46;93942.06;;;18.93;48.73
6345;BME280;3205;42.666;23.264;2023-03-31T12:52:21;93946.34;;;18.87;48.80
6345;BME280;3205;42.666;23.264;2023-03-31T12:55:15;93944.06;;;18.82;49.36
6345;BME280;3205;42.666;23.264;2023-03-31T12:57:45;93924.16;;;18.83;48.55
6345;BME280;3205;42.666;23.264;2023-03-31T13:00:19;93924.06;;;18.93;47.94
6345;BME280;3205;42.666;23.264;2023-03-31T13:02:46;93919.41;;;19.04;47.90
6345;BME280;3205;42.666;23.264;2023-03-31T13:05:45;93904.53;;;18.96;47.86
6345;BME280;3205;42.666;23.264;2023-03-31T13:08:54;93900.78;;;19.31;48.60
6345;BME280;3205;42.666;23.264;2023-03-31T13:11:22;93897.56;;;19.49;47.29
6345;BME280;3205;42.666;23.264;2023-03-31T13:14:01;93893.06;;;19.39;47.04
6345;BME280;3205;42.666;23.264;2023-03-31T13:16:28;93878.41;;;19.11;47.32
6345;BME280;3205;42.666;23.264;2023-03-31T13:18:55;93869.97;;;19.16;47.89
6345;BME280;3205;42.666;23.264;2023-03-31T13:21:23;93859.25;;;19.16;48.39
6345;BME280;3205;42.666;23.264;2023-03-31T13:23:50;93843.38;;;18.91;48.93
6345;BME280;3205;42.666;23.264;2023-03-31T13:26:37;93843.25;;;18.62;49.86
6345;BME280;3205;42.666;23.264;2023-03-31T13:29:19;93829.44;;;18.63;50.22
6345;BME280;3205;42.666;23.264;2023-03-31T13:32:05;93824.47;;;18.65;49.87
6345;BME280;3205;42.666;23.264;2023-03-31T13:34:34;93825.63;;;18.64;49.82